createdAt,value
2023-02-27T00:00:27.845Z,18.74
2023-02-27T00:01:28.100Z,18.75
2023-02-27T00:02:27.946Z,18.75
2023-02-27T00:03:27.985Z,18.73
2023-02-27T00:04:27.935Z,18.75
2023-02-27T00:05:27.996Z,18.78
2023-02-27T00:06:27.999Z,18.76
2023-02-27T00:07:27.999Z,18.78
2023-02-27T00:08:28.074Z,18.73
2023-02-27T00:09:28.034Z,18.73
2023-02-27T00:10:28.060Z,18.74
2023-02-27T00:11:28.652Z,18.75
2023-02-27T00:12:28.140Z,18.74
2023-02-27T00:13:28.139Z,18.71
2023-02-27T00:14:28.150Z,18.73
2023-02-27T00:15:28.199Z,18.74
2023-02-27T00:16:28.222Z,18.71
2023-02-27T00:17:28.194Z,18.73
2023-02-27T00:18:28.235Z,18.72
2023-02-27T00:19:28.233Z,18.74
2023-02-27T00:20:28.297Z,18.74
2023-02-27T00:21:28.475Z,18.76
2023-02-27T00:22:28.284Z,18.74
2023-02-27T00:23:28.317Z,18.74
2023-02-27T00:24:28.327Z,18.73
2023-02-27T00:25:28.431Z,18.73
2023-02-27T00:26:28.368Z,18.73
2023-02-27T00:27:28.422Z,18.76
2023-02-27T00:28:28.480Z,18.71
2023-02-27T00:29:28.481Z,18.76
2023-02-27T00:30:28.526Z,18.75
2023-02-27T00:31:29.032Z,18.73
2023-02-27T00:32:28.653Z,18.73
2023-02-27T00:33:28.560Z,18.74
2023-02-27T00:34:28.604Z,18.74
2023-02-27T00:35:28.636Z,18.73
2023-02-27T00:36:28.691Z,18.72
2023-02-27T00:37:28.714Z,18.73
2023-02-27T00:38:28.723Z,18.71
2023-02-27T00:39:28.760Z,18.72
2023-02-27T00:40:28.765Z,18.71
2023-02-27T00:41:29.070Z,18.70
2023-02-27T00:42:28.830Z,18.70
2023-02-27T00:43:28.888Z,18.70
2023-02-27T00:44:28.861Z,18.69
2023-02-27T00:45:28.902Z,18.70
2023-02-27T00:46:28.947Z,18.67
2023-02-27T00:47:28.971Z,18.69
2023-02-27T00:48:29.020Z,18.72
2023-02-27T00:49:29.051Z,18.70
2023-02-27T00:50:29.068Z,18.72
2023-02-27T00:51:29.089Z,18.71
2023-02-27T00:52:29.141Z,18.69
2023-02-27T00:53:29.178Z,18.69
2023-02-27T00:54:29.198Z,18.69
2023-02-27T00:55:29.248Z,18.71
2023-02-27T00:56:29.273Z,18.68
2023-02-27T00:57:29.413Z,18.70
2023-02-27T00:58:29.356Z,18.71
2023-02-27T00:59:29.414Z,18.71
2023-02-27T01:00:29.514Z,18.68
2023-02-27T01:01:29.504Z,18.70
2023-02-27T01:02:29.555Z,18.66
2023-02-27T01:03:29.574Z,18.67
2023-02-27T01:04:29.586Z,18.69
2023-02-27T01:05:29.645Z,18.66
2023-02-27T01:06:29.671Z,18.69
2023-02-27T01:07:29.733Z,18.71
2023-02-27T01:08:29.773Z,18.69
2023-02-27T01:09:29.809Z,18.67
2023-02-27T01:10:29.842Z,18.66
2023-02-27T01:11:29.884Z,18.65
2023-02-27T01:12:29.930Z,18.65
2023-02-27T01:13:29.983Z,18.65
2023-02-27T01:14:30.036Z,18.66
2023-02-27T01:15:30.029Z,18.66
2023-02-27T01:16:30.104Z,18.66
2023-02-27T01:17:30.108Z,18.65
2023-02-27T01:18:30.173Z,18.65
2023-02-27T01:19:30.197Z,18.64
2023-02-27T01:20:30.229Z,18.67
2023-02-27T01:21:30.282Z,18.66
2023-02-27T01:22:30.312Z,18.65
2023-02-27T01:23:30.352Z,18.67
2023-02-27T01:24:30.403Z,18.68
2023-02-27T01:25:30.416Z,18.68
2023-02-27T01:26:30.460Z,18.64
2023-02-27T01:27:30.507Z,18.63
2023-02-27T01:28:30.525Z,18.64
2023-02-27T01:29:30.589Z,18.66
2023-02-27T01:30:30.659Z,18.66
2023-02-27T01:31:30.724Z,18.70
2023-02-27T01:32:30.718Z,18.64
2023-02-27T01:33:30.742Z,18.64
2023-02-27T01:34:32.187Z,18.62
2023-02-27T01:35:31.060Z,18.64
2023-02-27T01:36:31.086Z,18.67
2023-02-27T01:37:30.738Z,18.68
2023-02-27T01:38:30.745Z,18.63
2023-02-27T01:39:30.736Z,18.64
2023-02-27T01:40:30.732Z,18.63
2023-02-27T01:41:30.700Z,18.64
2023-02-27T01:42:30.687Z,18.63
2023-02-27T01:43:30.700Z,18.65
2023-02-27T01:44:30.685Z,18.66
2023-02-27T01:45:30.743Z,18.67
2023-02-27T01:46:30.705Z,18.63
2023-02-27T01:47:30.662Z,18.63
2023-02-27T01:48:30.633Z,18.67
2023-02-27T01:49:30.656Z,18.66
2023-02-27T01:50:30.634Z,18.65
2023-02-27T01:51:30.628Z,18.64
2023-02-27T01:52:30.630Z,18.66
2023-02-27T01:53:30.640Z,18.63
2023-02-27T01:54:30.621Z,18.65
2023-02-27T01:55:30.708Z,18.66
2023-02-27T01:56:30.598Z,18.64
2023-02-27T01:57:30.602Z,18.65
2023-02-27T01:58:30.595Z,18.66
2023-02-27T01:59:30.550Z,18.65
2023-02-27T02:00:30.601Z,18.66
2023-02-27T02:01:30.653Z,18.64
2023-02-27T02:02:30.619Z,18.65
2023-02-27T02:03:30.566Z,18.64
2023-02-27T02:04:30.565Z,18.68
2023-02-27T02:05:30.556Z,18.66
2023-02-27T02:06:30.518Z,18.70
2023-02-27T02:07:30.518Z,18.70
2023-02-27T02:08:30.532Z,18.69
2023-02-27T02:09:30.532Z,18.69
2023-02-27T02:10:30.520Z,18.68
2023-02-27T02:11:30.490Z,18.67
2023-02-27T02:12:30.522Z,18.69
2023-02-27T02:13:30.510Z,18.70
2023-02-27T02:14:30.476Z,18.67
2023-02-27T02:15:30.475Z,18.71
2023-02-27T02:16:30.598Z,18.71
2023-02-27T02:17:30.441Z,18.70
2023-02-27T02:18:30.473Z,18.70
2023-02-27T02:19:30.442Z,18.72
2023-02-27T02:20:30.452Z,18.71
2023-02-27T02:21:30.442Z,18.69
2023-02-27T02:22:30.426Z,18.68
2023-02-27T02:23:30.398Z,18.70
2023-02-27T02:24:30.435Z,18.71
2023-02-27T02:25:30.392Z,18.68
2023-02-27T02:26:33.217Z,18.68
2023-02-27T02:27:30.375Z,18.69
2023-02-27T02:28:30.419Z,18.70
2023-02-27T02:29:30.401Z,18.67
2023-02-27T02:30:30.522Z,18.70
2023-02-27T02:31:30.969Z,18.68
2023-02-27T02:32:30.386Z,18.70
2023-02-27T02:33:30.376Z,18.71
2023-02-27T02:34:30.344Z,18.69
2023-02-27T02:35:30.337Z,18.68
2023-02-27T02:36:30.333Z,18.68
2023-02-27T02:37:30.341Z,18.68
2023-02-27T02:38:30.314Z,18.70
2023-02-27T02:39:30.299Z,18.68
2023-02-27T02:40:30.309Z,18.69
2023-02-27T02:41:30.288Z,18.68
2023-02-27T02:42:30.292Z,18.69
2023-02-27T02:43:30.337Z,18.68
2023-02-27T02:44:30.265Z,18.68
2023-02-27T02:45:30.268Z,18.69
2023-02-27T02:46:30.280Z,18.71
2023-02-27T02:47:30.241Z,18.73
2023-02-27T02:48:30.257Z,18.72
2023-02-27T02:49:30.264Z,18.71
2023-02-27T02:50:30.256Z,18.73
2023-02-27T02:51:30.208Z,18.73
2023-02-27T02:52:30.218Z,18.72
2023-02-27T02:53:36.743Z,18.70
2023-02-27T02:54:31.209Z,18.72
2023-02-27T02:55:30.217Z,18.72
2023-02-27T02:56:30.205Z,18.74
2023-02-27T02:57:30.218Z,18.73
2023-02-27T02:58:30.190Z,18.76
2023-02-27T02:59:30.166Z,18.74
2023-02-27T03:00:30.166Z,18.78
2023-02-27T03:01:30.421Z,18.74
2023-02-27T03:02:30.175Z,18.78
2023-02-27T03:03:30.184Z,18.76
2023-02-27T03:04:30.206Z,18.78
2023-02-27T03:05:30.130Z,18.79
2023-02-27T03:06:30.105Z,18.77
2023-02-27T03:07:30.250Z,18.77
2023-02-27T03:08:30.217Z,18.78
2023-02-27T03:09:30.299Z,18.80
2023-02-27T03:10:30.302Z,18.78
2023-02-27T03:11:30.368Z,18.79
2023-02-27T03:12:30.425Z,18.78
2023-02-27T03:13:30.463Z,18.78
2023-02-27T03:14:30.503Z,18.81
2023-02-27T03:15:30.705Z,18.79
2023-02-27T03:16:30.574Z,18.81
2023-02-27T03:17:30.596Z,18.81
2023-02-27T03:18:30.625Z,18.81
2023-02-27T03:19:30.670Z,18.80
2023-02-27T03:20:30.680Z,18.81
2023-02-27T03:21:30.762Z,18.78
2023-02-27T03:22:30.781Z,18.80
2023-02-27T03:23:30.831Z,18.79
2023-02-27T03:24:30.826Z,18.79
2023-02-27T03:25:30.862Z,18.79
2023-02-27T03:26:30.903Z,18.82
2023-02-27T03:27:30.960Z,18.82
2023-02-27T03:28:30.953Z,18.82
2023-02-27T03:29:30.991Z,18.83
2023-02-27T03:30:31.057Z,18.82
2023-02-27T03:37:31.189Z,18.86
2023-02-27T03:38:31.203Z,18.87
2023-02-27T03:39:31.220Z,18.88
2023-02-27T03:40:31.287Z,18.86
2023-02-27T03:41:31.298Z,18.87
2023-02-27T03:42:31.288Z,18.88
2023-02-27T03:43:31.295Z,18.88
2023-02-27T03:44:31.324Z,18.90
2023-02-27T03:45:31.328Z,18.90
2023-02-27T03:46:31.469Z,18.90
2023-02-27T03:47:31.358Z,18.94
2023-02-27T03:48:31.406Z,18.89
2023-02-27T03:49:31.438Z,18.91
2023-02-27T03:50:31.455Z,18.92
2023-02-27T03:51:31.457Z,18.94
2023-02-27T03:52:31.487Z,18.93
2023-02-27T03:53:31.517Z,18.96
2023-02-27T03:54:31.547Z,18.93
2023-02-27T03:55:31.567Z,18.95
2023-02-27T03:56:31.605Z,18.92
2023-02-27T03:57:31.596Z,18.96
2023-02-27T03:58:31.614Z,18.98
2023-02-27T03:59:31.659Z,18.98
2023-02-27T04:00:31.661Z,18.99
2023-02-27T04:01:31.742Z,19.01
2023-02-27T04:02:31.772Z,18.99
2023-02-27T04:03:31.751Z,19.00
2023-02-27T04:04:31.801Z,19.01
2023-02-27T04:05:31.772Z,19.00
2023-02-27T04:06:31.832Z,18.98
2023-02-27T04:07:31.856Z,18.99
2023-02-27T04:08:31.882Z,19.03
2023-02-27T04:09:31.879Z,19.06
2023-02-27T04:10:31.932Z,19.07
2023-02-27T04:11:31.951Z,19.04
2023-02-27T04:12:32.012Z,19.05
2023-02-27T04:13:32.026Z,19.05
2023-02-27T04:14:32.011Z,19.02
2023-02-27T04:15:32.053Z,19.03
2023-02-27T04:16:32.059Z,19.04
2023-02-27T04:17:32.113Z,19.05
2023-02-27T04:18:32.118Z,19.06
2023-02-27T04:19:32.162Z,19.10
2023-02-27T04:20:32.195Z,19.06
2023-02-27T04:21:32.241Z,19.07
2023-02-27T04:22:32.254Z,19.06
2023-02-27T04:23:32.275Z,19.07
2023-02-27T04:24:32.304Z,19.08
2023-02-27T04:25:32.321Z,19.07
2023-02-27T04:26:32.371Z,19.11
2023-02-27T04:27:32.380Z,19.09
2023-02-27T04:28:32.431Z,19.10
2023-02-27T04:29:32.500Z,19.09
2023-02-27T04:30:32.463Z,19.10
2023-02-27T04:31:32.639Z,19.14
2023-02-27T04:32:32.643Z,19.15
2023-02-27T04:33:32.592Z,19.16
2023-02-27T04:34:32.637Z,19.15
2023-02-27T04:35:32.690Z,19.13
2023-02-27T04:36:32.688Z,19.11
2023-02-27T04:37:32.701Z,19.10
2023-02-27T04:38:32.742Z,19.13
2023-02-27T04:39:32.761Z,19.13
2023-02-27T04:40:32.814Z,19.14
2023-02-27T04:41:32.844Z,19.14
2023-02-27T04:42:32.868Z,19.14
2023-02-27T04:43:32.927Z,19.16
2023-02-27T04:44:32.930Z,19.20
2023-02-27T04:45:32.977Z,19.16
2023-02-27T04:46:33.007Z,19.17
2023-02-27T04:47:32.990Z,19.17
2023-02-27T04:48:33.095Z,19.19
2023-02-27T04:49:33.080Z,19.20
2023-02-27T04:50:33.112Z,19.16
2023-02-27T04:51:33.159Z,19.16
2023-02-27T04:52:33.208Z,19.18
2023-02-27T04:53:33.180Z,19.21
2023-02-27T04:54:33.241Z,19.17
2023-02-27T04:55:33.255Z,19.18
2023-02-27T04:56:33.256Z,19.19
2023-02-27T04:57:33.345Z,19.19
2023-02-27T04:58:33.331Z,19.20
2023-02-27T04:59:33.358Z,19.23
2023-02-27T05:00:33.377Z,19.24
2023-02-27T05:01:33.399Z,19.22
2023-02-27T05:02:33.494Z,19.23
2023-02-27T05:03:33.419Z,19.22
2023-02-27T05:04:33.418Z,19.23
2023-02-27T05:05:33.457Z,19.27
2023-02-27T05:06:33.498Z,19.28
2023-02-27T05:07:33.594Z,19.25
2023-02-27T05:08:33.549Z,19.25
2023-02-27T05:09:33.569Z,19.27
2023-02-27T05:10:33.615Z,19.25
2023-02-27T05:11:33.641Z,19.28
2023-02-27T05:12:33.670Z,19.27
2023-02-27T05:13:33.704Z,19.32
2023-02-27T05:14:33.741Z,19.28
2023-02-27T05:15:33.778Z,19.28
2023-02-27T05:16:33.839Z,19.26
2023-02-27T05:17:33.936Z,19.26
2023-02-27T05:18:33.902Z,19.26
2023-02-27T05:19:33.899Z,19.26
2023-02-27T05:20:33.950Z,19.28
2023-02-27T05:21:33.991Z,19.28
2023-02-27T05:22:34.037Z,19.31
2023-02-27T05:23:34.052Z,19.29
2023-02-27T05:24:34.122Z,19.28
2023-02-27T05:25:34.143Z,19.29
2023-02-27T05:26:34.217Z,19.29
2023-02-27T05:27:34.218Z,19.26
2023-02-27T05:28:34.260Z,19.26
2023-02-27T05:29:34.308Z,19.28
2023-02-27T05:30:34.369Z,19.30
2023-02-27T05:31:34.428Z,19.28
2023-02-27T05:32:34.456Z,19.27
2023-02-27T05:33:34.457Z,19.30
2023-02-27T05:34:34.507Z,19.31
2023-02-27T05:35:34.607Z,19.33
2023-02-27T05:36:34.572Z,19.32
2023-02-27T05:37:34.612Z,19.32
2023-02-27T05:38:34.673Z,19.28
2023-02-27T05:39:34.753Z,19.32
2023-02-27T05:40:34.763Z,19.27
2023-02-27T05:41:34.804Z,19.28
2023-02-27T06:00:42.949Z,19.34
2023-02-27T06:01:35.459Z,19.35
2023-02-27T06:40:35.665Z,22.42
2023-02-27T06:45:35.658Z,21.44
2023-02-27T06:47:36.127Z,21.99
2023-02-27T06:49:35.664Z,22.73
2023-02-27T06:50:35.658Z,22.57
2023-02-27T06:51:35.675Z,21.99
2023-02-27T06:52:35.650Z,22.12
2023-02-27T06:54:35.656Z,21.73
2023-02-27T06:57:35.744Z,22.61
2023-02-27T06:58:35.574Z,22.26
2023-02-27T06:59:35.650Z,22.32
2023-02-27T07:00:35.673Z,23.12
2023-02-27T07:01:35.671Z,21.80
2023-02-27T07:02:35.608Z,22.20
2023-02-27T07:03:35.697Z,22.13
2023-02-27T07:04:35.607Z,22.31
2023-02-27T07:05:35.592Z,21.77
2023-02-27T07:07:34.631Z,22.20
2023-02-27T07:07:38.263Z,22.36
2023-02-27T07:08:35.697Z,21.73
2023-02-27T07:10:35.524Z,22.06
2023-02-27T07:11:35.561Z,21.92
2023-02-27T07:12:35.538Z,22.35
2023-02-27T07:13:35.513Z,22.74
2023-02-27T07:15:35.516Z,22.45
2023-02-27T07:16:35.504Z,22.98
2023-02-27T07:21:35.459Z,23.31
2023-02-27T07:22:35.440Z,22.42
2023-02-27T07:23:35.656Z,22.03
2023-02-27T07:24:35.449Z,21.98
2023-02-27T07:25:35.432Z,22.26
2023-02-27T07:26:35.396Z,22.15
2023-02-27T07:27:35.406Z,22.37
2023-02-27T07:28:35.427Z,22.52
2023-02-27T07:29:35.429Z,22.62
2023-02-27T07:30:35.390Z,22.84
2023-02-27T07:31:35.393Z,23.13
2023-02-27T07:32:35.412Z,24.27
2023-02-27T07:33:35.371Z,23.46
2023-02-27T07:34:35.343Z,24.62
2023-02-27T07:35:35.379Z,23.90
2023-02-27T07:36:35.471Z,23.60
2023-02-27T07:37:35.336Z,24.60
2023-02-27T07:38:35.649Z,24.85
2023-02-27T07:39:35.389Z,24.25
2023-02-27T07:40:36.119Z,24.25
2023-02-27T07:42:35.316Z,24.47
2023-02-27T07:43:35.676Z,24.06
2023-02-27T07:44:35.289Z,24.00
2023-02-27T07:45:35.281Z,24.53
2023-02-27T07:46:35.308Z,24.28
2023-02-27T07:47:35.311Z,24.30
2023-02-27T07:48:35.321Z,24.31
2023-02-27T07:49:35.242Z,24.15
2023-02-27T07:50:35.236Z,23.85
2023-02-27T07:51:35.280Z,23.81
2023-02-27T07:52:35.311Z,23.72
2023-02-27T07:53:35.687Z,23.50
2023-02-27T07:54:35.744Z,23.17
2023-02-27T07:55:36.185Z,22.83
2023-02-27T07:56:36.135Z,22.48
2023-02-27T07:57:35.217Z,22.75
2023-02-27T07:58:35.260Z,22.61
2023-02-27T07:59:35.202Z,22.64
2023-02-27T08:00:35.297Z,22.57
2023-02-27T08:01:35.252Z,21.90
2023-02-27T08:02:35.256Z,21.98
2023-02-27T08:03:35.766Z,22.40
2023-02-27T08:04:35.381Z,22.36
2023-02-27T08:05:35.367Z,22.27
2023-02-27T08:06:35.361Z,22.12
2023-02-27T08:07:35.388Z,22.18
2023-02-27T08:08:35.368Z,22.13
2023-02-27T08:09:36.336Z,21.86
2023-02-27T08:10:35.354Z,21.88
2023-02-27T08:11:35.327Z,21.91
2023-02-27T08:12:35.323Z,21.55
2023-02-27T08:14:02.444Z,21.44
2023-02-27T08:14:36.300Z,21.63
2023-02-27T08:15:35.315Z,21.40
2023-02-27T08:16:35.378Z,21.29
2023-02-27T08:17:35.260Z,21.23
2023-02-27T08:18:35.308Z,21.26
2023-02-27T08:19:35.266Z,21.39
2023-02-27T08:20:35.264Z,21.41
2023-02-27T08:21:35.263Z,21.41
2023-02-27T08:22:35.230Z,21.51
2023-02-27T08:23:35.251Z,21.62
2023-02-27T08:24:35.252Z,21.34
2023-02-27T08:25:35.212Z,21.51
2023-02-27T08:27:35.213Z,21.44
2023-02-27T08:28:35.202Z,21.58
2023-02-27T08:29:35.181Z,21.76
2023-02-27T08:30:35.189Z,22.16
2023-02-27T08:31:35.224Z,22.05
2023-02-27T08:32:35.222Z,21.96
2023-02-27T08:34:35.229Z,20.64
2023-02-27T08:35:35.200Z,20.85
2023-02-27T08:36:35.158Z,21.12
2023-02-27T08:37:35.160Z,22.12
2023-02-27T08:38:35.180Z,22.70
2023-02-27T08:39:35.663Z,22.76
2023-02-27T08:40:35.169Z,22.96
2023-02-27T08:41:35.206Z,24.44
2023-02-27T08:42:35.224Z,23.32
2023-02-27T08:43:35.226Z,23.58
2023-02-27T08:44:35.685Z,23.40
2023-02-27T08:45:35.405Z,22.98
2023-02-27T08:46:35.393Z,23.75
2023-02-27T08:47:35.467Z,22.98
2023-02-27T08:48:35.513Z,22.66
2023-02-27T08:49:35.569Z,21.80
2023-02-27T08:50:35.591Z,21.41
2023-02-27T08:51:35.638Z,21.25
2023-02-27T08:52:35.644Z,21.57
2023-02-27T08:53:35.603Z,21.69
2023-02-27T08:54:35.650Z,21.06
2023-02-27T08:56:35.713Z,20.87
2023-02-27T08:57:35.787Z,20.74
2023-02-27T09:00:35.908Z,20.76
2023-02-27T09:01:35.948Z,20.72
2023-02-27T09:03:35.971Z,20.53
2023-02-27T09:04:36.160Z,20.56
2023-02-27T09:05:36.083Z,20.35
2023-02-27T09:06:36.106Z,20.81
2023-02-27T09:07:36.195Z,20.50
2023-02-27T09:09:36.227Z,20.30
2023-02-27T09:10:36.211Z,20.39
2023-02-27T09:12:36.218Z,20.22
2023-02-27T09:13:36.195Z,20.44
2023-02-27T09:14:36.737Z,20.95
2023-02-27T09:15:36.150Z,20.07
2023-02-27T09:16:36.227Z,20.17
2023-02-27T09:17:36.204Z,20.38
2023-02-27T09:18:36.156Z,20.44
2023-02-27T09:19:36.228Z,20.38
2023-02-27T09:20:36.178Z,20.14
2023-02-27T09:23:36.161Z,19.81
2023-02-27T09:24:36.164Z,19.86
2023-02-27T09:25:36.130Z,19.77
2023-02-27T09:26:45.157Z,20.17
2023-02-27T09:27:37.146Z,19.96
2023-02-27T09:28:36.118Z,20.01
2023-02-27T09:29:36.138Z,20.19
2023-02-27T09:30:36.113Z,21.07
2023-02-27T09:31:36.273Z,21.34
2023-02-27T09:32:36.129Z,21.22
2023-02-27T09:33:36.137Z,22.32
2023-02-27T09:34:36.708Z,22.38
2023-02-27T09:37:36.050Z,21.17
2023-02-27T09:40:36.231Z,22.52
2023-02-27T09:41:36.025Z,22.11
2023-02-27T09:42:36.029Z,21.57
2023-02-27T09:43:36.000Z,21.39
2023-02-27T09:44:45.824Z,21.22
2023-02-27T09:45:37.050Z,21.57
2023-02-27T09:46:35.953Z,21.67
2023-02-27T09:47:36.054Z,22.18
2023-02-27T09:48:36.004Z,21.99
2023-02-27T09:54:35.996Z,23.52
2023-02-27T09:56:35.976Z,23.85
2023-02-27T09:57:35.992Z,23.83
2023-02-27T09:58:36.098Z,23.94
2023-02-27T09:59:36.087Z,23.95
2023-02-27T10:00:36.216Z,23.90
2023-02-27T10:01:36.210Z,24.00
2023-02-27T10:02:36.242Z,24.44
2023-02-27T10:03:36.277Z,24.43
2023-02-27T10:05:36.765Z,24.34
2023-02-27T10:07:36.506Z,25.00
2023-02-27T10:09:36.643Z,25.03
2023-02-27T10:10:36.514Z,24.97
2023-02-27T10:11:36.561Z,24.92
2023-02-27T10:12:36.592Z,25.01
2023-02-27T10:13:36.596Z,25.19
2023-02-27T10:14:36.599Z,25.32
2023-02-27T10:15:36.659Z,25.72
2023-02-27T10:16:36.724Z,25.47
2023-02-27T10:17:36.704Z,25.76
2023-02-27T10:18:36.755Z,25.87
2023-02-27T10:19:36.730Z,26.14
2023-02-27T10:20:37.250Z,26.10
2023-02-27T10:21:36.726Z,25.81
2023-02-27T10:22:36.740Z,25.86
2023-02-27T10:23:36.782Z,25.66
2023-02-27T10:24:36.772Z,26.03
2023-02-27T10:25:36.766Z,26.37
2023-02-27T10:26:36.787Z,26.36
2023-02-27T10:27:36.800Z,26.17
2023-02-27T10:28:37.083Z,26.07
2023-02-27T10:29:37.174Z,26.51
2023-02-27T10:30:37.286Z,26.51
2023-02-27T10:31:36.902Z,26.35
2023-02-27T10:32:36.820Z,26.17
2023-02-27T10:33:36.811Z,26.20
2023-02-27T10:34:36.845Z,26.55
2023-02-27T10:35:37.238Z,26.35
2023-02-27T10:36:36.871Z,26.34
2023-02-27T10:37:36.869Z,26.63
2023-02-27T10:38:36.878Z,26.80
2023-02-27T10:39:36.895Z,26.64
2023-02-27T10:40:36.898Z,26.75
2023-02-27T10:41:36.925Z,26.59
2023-02-27T10:42:36.901Z,26.13
2023-02-27T10:43:36.910Z,26.04
2023-02-27T10:44:37.737Z,25.49
2023-02-27T10:45:38.934Z,24.27
2023-02-27T10:46:37.124Z,24.32
2023-02-27T10:47:37.138Z,24.00
2023-02-27T10:48:37.068Z,25.18
2023-02-27T10:49:37.089Z,25.12
2023-02-27T10:50:37.242Z,25.51
2023-02-27T10:51:38.387Z,25.96
2023-02-27T10:52:37.130Z,25.97
2023-02-27T10:53:37.185Z,26.06
2023-02-27T10:54:37.264Z,26.78
2023-02-27T10:55:37.788Z,26.21
2023-02-27T10:56:37.419Z,27.00
2023-02-27T10:57:38.375Z,26.35
2023-02-27T10:58:38.152Z,27.06
2023-02-27T10:59:37.496Z,26.35
2023-02-27T11:00:37.463Z,26.22
2023-02-27T11:01:37.688Z,26.66
2023-02-27T11:02:37.539Z,26.04
2023-02-27T11:03:40.545Z,26.21
2023-02-27T11:04:38.394Z,26.26
2023-02-27T11:05:38.151Z,26.37
2023-02-27T11:06:38.277Z,27.07
2023-02-27T11:07:37.531Z,28.02
2023-02-27T11:08:39.292Z,26.91
2023-02-27T11:09:37.463Z,26.84
2023-02-27T11:10:37.450Z,27.48
2023-02-27T11:11:37.442Z,26.85
2023-02-27T11:12:37.450Z,27.03
2023-02-27T11:13:37.431Z,26.77
2023-02-27T11:14:37.412Z,26.98
2023-02-27T11:15:37.538Z,26.97
2023-02-27T11:16:37.406Z,27.32
2023-02-27T11:17:37.426Z,26.83
2023-02-27T11:18:37.418Z,26.85
2023-02-27T11:19:37.428Z,26.69
2023-02-27T11:20:37.388Z,26.82
2023-02-27T11:21:37.394Z,27.26
2023-02-27T11:22:37.376Z,27.44
2023-02-27T11:23:37.427Z,27.50
2023-02-27T11:24:37.390Z,27.89
2023-02-27T11:25:37.347Z,27.32
2023-02-27T11:26:37.784Z,27.29
2023-02-27T11:27:37.343Z,27.34
2023-02-27T11:28:37.382Z,27.70
2023-02-27T11:29:37.351Z,28.30
2023-02-27T11:30:37.291Z,27.89
2023-02-27T11:31:37.379Z,27.77
2023-02-27T11:32:37.318Z,26.97
2023-02-27T11:33:37.315Z,26.96
2023-02-27T11:34:37.315Z,26.99
2023-02-27T11:35:37.296Z,27.61
2023-02-27T11:36:37.780Z,27.55
2023-02-27T11:37:37.294Z,28.07
2023-02-27T11:38:37.283Z,27.38
2023-02-27T11:39:37.291Z,26.57
2023-02-27T11:40:37.268Z,27.10
2023-02-27T11:41:37.755Z,26.94
2023-02-27T11:42:37.241Z,27.59
2023-02-27T11:43:37.276Z,28.04
2023-02-27T11:44:50.579Z,28.43
2023-02-27T11:46:10.214Z,28.43
2023-02-27T11:46:48.364Z,29.04
2023-02-27T11:47:38.336Z,28.23
2023-02-27T11:48:37.247Z,28.15
2023-02-27T11:49:37.302Z,28.13
2023-02-27T11:50:37.279Z,27.84
2023-02-27T11:51:37.228Z,27.59
2023-02-27T11:52:37.361Z,27.34
2023-02-27T11:53:37.390Z,27.54
2023-02-27T11:54:37.342Z,27.69
2023-02-27T11:55:37.261Z,28.08
2023-02-27T11:56:37.273Z,27.80
2023-02-27T11:57:37.213Z,27.99
2023-02-27T11:58:37.225Z,28.06
2023-02-27T11:59:37.187Z,27.73
2023-02-27T12:00:37.275Z,27.68
2023-02-27T12:01:37.241Z,28.27
2023-02-27T12:02:39.285Z,28.42
2023-02-27T12:03:37.246Z,27.95
2023-02-27T12:04:37.145Z,28.19
2023-02-27T12:05:37.156Z,28.07
2023-02-27T12:06:37.276Z,28.03
2023-02-27T12:07:37.140Z,27.99
2023-02-27T12:08:37.157Z,28.11
2023-02-27T12:09:37.151Z,28.30
2023-02-27T12:10:37.126Z,28.21
2023-02-27T12:11:37.246Z,28.44
2023-02-27T12:12:37.104Z,28.68
2023-02-27T12:13:37.117Z,28.72
2023-02-27T12:14:37.138Z,28.66
2023-02-27T12:15:37.169Z,29.09
2023-02-27T12:16:37.235Z,28.70
2023-02-27T12:17:37.246Z,28.49
2023-02-27T12:18:37.268Z,28.31
2023-02-27T12:19:37.310Z,29.32
2023-02-27T12:20:37.275Z,28.52
2023-02-27T12:21:37.816Z,28.60
2023-02-27T12:22:37.314Z,28.67
2023-02-27T12:23:37.389Z,29.32
2023-02-27T12:24:37.364Z,29.17
2023-02-27T12:25:37.472Z,29.44
2023-02-27T12:26:37.472Z,29.67
2023-02-27T12:27:37.783Z,29.61
2023-02-27T12:28:37.539Z,28.89
2023-02-27T12:29:37.582Z,28.60
2023-02-27T12:30:37.628Z,28.51
2023-02-27T12:31:37.632Z,28.32
2023-02-27T12:32:37.808Z,28.44
2023-02-27T12:33:37.627Z,28.51
2023-02-27T12:34:37.674Z,28.35
2023-02-27T12:35:37.727Z,28.26
2023-02-27T12:36:37.753Z,28.13
2023-02-27T12:37:38.271Z,28.14
2023-02-27T12:38:37.913Z,28.13
2023-02-27T12:39:37.932Z,27.91
2023-02-27T12:40:38.015Z,27.86
2023-02-27T12:41:38.055Z,27.98
2023-02-27T12:42:38.129Z,27.88
2023-02-27T12:43:38.159Z,27.68
2023-02-27T12:44:38.183Z,27.69
2023-02-27T12:45:38.208Z,27.63
2023-02-27T12:46:38.178Z,27.59
2023-02-27T12:47:38.174Z,27.65
2023-02-27T12:48:38.163Z,27.42
2023-02-27T12:49:38.170Z,27.59
2023-02-27T12:50:38.160Z,27.41
2023-02-27T12:51:38.181Z,27.20
2023-02-27T12:52:38.180Z,27.02
2023-02-27T12:53:38.200Z,27.14
2023-02-27T12:54:38.170Z,27.06
2023-02-27T12:55:38.178Z,27.02
2023-02-27T12:56:38.173Z,26.99
2023-02-27T12:57:38.222Z,26.88
2023-02-27T12:58:38.224Z,26.97
2023-02-27T12:59:38.232Z,26.69
2023-02-27T13:00:38.253Z,26.63
2023-02-27T13:01:38.282Z,26.54
2023-02-27T13:02:38.268Z,26.56
2023-02-27T13:03:38.335Z,26.58
2023-02-27T13:04:38.316Z,26.48
2023-02-27T13:05:38.321Z,26.28
2023-02-27T13:06:38.357Z,26.18
2023-02-27T13:07:38.394Z,26.09
2023-02-27T13:08:38.430Z,26.13
2023-02-27T13:09:38.469Z,26.14
2023-02-27T13:10:38.498Z,26.00
2023-02-27T13:11:38.487Z,25.96
2023-02-27T13:12:38.546Z,25.82
2023-02-27T13:13:38.550Z,25.74
2023-02-27T13:14:38.568Z,25.66
2023-02-27T13:15:38.612Z,25.70
2023-02-27T13:16:38.715Z,25.61
2023-02-27T13:17:38.663Z,25.42
2023-02-27T13:18:38.704Z,25.55
2023-02-27T13:19:38.793Z,25.40
2023-02-27T13:20:38.796Z,25.37
2023-02-27T13:21:38.817Z,25.24
2023-02-27T13:22:39.294Z,25.25
2023-02-27T13:23:38.882Z,25.10
2023-02-27T13:24:38.881Z,24.97
2023-02-27T13:25:38.907Z,25.02
2023-02-27T13:26:38.974Z,25.03
2023-02-27T13:27:38.938Z,24.95
2023-02-27T13:28:39.036Z,24.93
2023-02-27T13:29:40.728Z,24.94
2023-02-27T13:30:39.041Z,24.84
2023-02-27T13:31:39.148Z,24.80
2023-02-27T13:32:44.047Z,24.68
2023-02-27T13:33:40.134Z,24.84
2023-02-27T13:34:40.126Z,24.77
2023-02-27T13:35:39.137Z,24.68
2023-02-27T13:36:39.112Z,24.62
2023-02-27T13:37:39.139Z,24.62
2023-02-27T13:38:39.083Z,24.54
2023-02-27T13:39:39.070Z,24.47
2023-02-27T13:40:39.074Z,24.46
2023-02-27T13:41:39.104Z,24.46
2023-02-27T13:42:39.036Z,24.40
2023-02-27T13:43:51.478Z,24.42
2023-02-27T13:44:40.057Z,24.37
2023-02-27T13:45:39.093Z,24.29
2023-02-27T13:46:39.701Z,24.42
2023-02-27T13:47:39.324Z,24.65
2023-02-27T13:48:39.562Z,24.67
2023-02-27T13:49:39.135Z,24.61
2023-02-27T13:50:39.048Z,25.29
2023-02-27T13:51:39.334Z,27.56
2023-02-27T13:52:39.017Z,26.79
2023-02-27T13:53:39.037Z,26.28
2023-02-27T13:54:38.986Z,32.36
2023-02-27T13:55:38.991Z,36.45
2023-02-27T13:56:38.996Z,35.51
2023-02-27T13:57:39.318Z,38.07
2023-02-27T13:58:39.053Z,37.65
2023-02-27T13:59:39.067Z,37.35
2023-02-27T14:00:39.129Z,37.77
2023-02-27T14:01:39.181Z,37.77
2023-02-27T14:02:46.594Z,38.95
2023-02-27T14:03:40.169Z,37.73
2023-02-27T14:04:39.132Z,37.45
2023-02-27T14:05:39.146Z,37.19
2023-02-27T14:06:39.168Z,35.73
2023-02-27T14:07:39.127Z,34.89
2023-02-27T14:08:39.125Z,34.43
2023-02-27T14:09:39.832Z,33.84
2023-02-27T14:10:39.140Z,33.65
2023-02-27T14:11:39.095Z,33.41
2023-02-27T14:12:45.516Z,33.56
2023-02-27T14:13:40.076Z,33.67
2023-02-27T14:14:39.175Z,33.25
2023-02-27T14:15:39.084Z,32.93
2023-02-27T14:16:39.089Z,32.84
2023-02-27T14:17:39.081Z,32.51
2023-02-27T14:18:39.098Z,32.09
2023-02-27T14:19:39.035Z,32.43
2023-02-27T14:20:39.024Z,32.19
2023-02-27T14:21:39.081Z,31.68
2023-02-27T14:22:39.158Z,31.57
2023-02-27T14:23:39.180Z,31.64
2023-02-27T14:24:41.354Z,31.46
2023-02-27T14:25:39.245Z,31.54
2023-02-27T14:26:39.270Z,31.40
2023-02-27T14:27:39.241Z,31.19
2023-02-27T14:28:39.200Z,30.99
2023-02-27T14:29:39.212Z,30.96
2023-02-27T14:30:39.209Z,30.92
2023-02-27T14:31:39.267Z,30.91
2023-02-27T14:32:39.209Z,30.96
2023-02-27T14:33:40.779Z,30.73